Terminal Aerodrome Forecast
Issued by NWS Lake Charles, LA

Home | Current Version | Previous Version | Text Only | Print | Product List | Glossary On
Versions: 1 2 3 4 5 6 7 8 9 10 11 12 13 14 15 16 17 18 19 20 21 22 23 24
000
FTUS44 KLCH 281120
TAFLFT
TAF
KLFT 281120Z 2812/2912 VRB03KT P6SM SCT250
      TEMPO 2812/2813 4SM BR
     FM281500 VRB04KT P6SM SCT022 SCT250
     FM281800 17005KT P6SM VCTS SCT040CB SCT250
      TEMPO 2819/2823 4SM TSRA SCT025 BKN030CB OVC060
     FM290000 VRB03KT P6SM SCT250=

USA.gov is the U.S. government's official web portal to all federal, state and local government web resources and services.